sensor_id;sensor_type;location;lat;lon;timestamp;pressure;altitude;pressure_sealevel;temperature
20289;BMP180;10303;51.960;8.372;2024-01-11T00:00:41;102003.00;;;-2.00
20289;BMP180;10303;51.960;8.372;2024-01-11T00:03:07;102000.00;;;-2.00
20289;BMP180;10303;51.960;8.372;2024-01-11T00:05:33;102001.00;;;-2.10
20289;BMP180;10303;51.960;8.372;2024-01-11T00:07:59;102007.00;;;-2.10
20289;BMP180;10303;51.960;8.372;2024-01-11T00:10:25;102003.00;;;-2.10
20289;BMP180;10303;51.960;8.372;2024-01-11T00:12:51;102002.00;;;-2.20
20289;BMP180;10303;51.960;8.372;2024-01-11T00:15:17;101996.00;;;-2.20
20289;BMP180;10303;51.960;8.372;2024-01-11T00:17:43;101989.00;;;-2.20
20289;BMP180;10303;51.960;8.372;2024-01-11T00:20:10;101997.00;;;-2.20
20289;BMP180;10303;51.960;8.372;2024-01-11T00:22:36;101992.00;;;-2.20
20289;BMP180;10303;51.960;8.372;2024-01-11T00:25:03;101993.00;;;-2.20
20289;BMP180;10303;51.960;8.372;2024-01-11T00:27:30;101980.00;;;-2.20
20289;BMP180;10303;51.960;8.372;2024-01-11T00:29:55;101973.00;;;-2.20
20289;BMP180;10303;51.960;8.372;2024-01-11T00:32:22;101978.00;;;-2.30
20289;BMP180;10303;51.960;8.372;2024-01-11T00:34:48;101976.00;;;-2.30
20289;BMP180;10303;51.960;8.372;2024-01-11T00:37:14;101969.00;;;-2.30
20289;BMP180;10303;51.960;8.372;2024-01-11T00:39:40;101975.00;;;-2.30
20289;BMP180;10303;51.960;8.372;2024-01-11T00:42:05;101964.00;;;-2.30
20289;BMP180;10303;51.960;8.372;2024-01-11T00:44:31;101961.00;;;-2.30
20289;BMP180;10303;51.960;8.372;2024-01-11T00:46:58;101970.00;;;-2.40
20289;BMP180;10303;51.960;8.372;2024-01-11T00:49:24;101964.00;;;-2.40
20289;BMP180;10303;51.960;8.372;2024-01-11T00:51:50;101951.00;;;-2.40
20289;BMP180;10303;51.960;8.372;2024-01-11T00:54:16;101960.00;;;-2.50
20289;BMP180;10303;51.960;8.372;2024-01-11T00:56:42;101955.00;;;-2.50
20289;BMP180;10303;51.960;8.372;2024-01-11T00:59:08;101956.00;;;-2.50
20289;BMP180;10303;51.960;8.372;2024-01-11T01:01:34;101959.00;;;-2.50
20289;BMP180;10303;51.960;8.372;2024-01-11T01:03:59;101971.00;;;-2.50
20289;BMP180;10303;51.960;8.372;2024-01-11T01:06:25;101970.00;;;-2.60
20289;BMP180;10303;51.960;8.372;2024-01-11T01:08:51;101973.00;;;-2.60
20289;BMP180;10303;51.960;8.372;2024-01-11T01:11:17;101964.00;;;-2.60
20289;BMP180;10303;51.960;8.372;2024-01-11T01:13:43;101973.00;;;-2.60
20289;BMP180;10303;51.960;8.372;2024-01-11T01:16:09;101976.00;;;-2.70
20289;BMP180;10303;51.960;8.372;2024-01-11T01:18:35;101976.00;;;-2.70
20289;BMP180;10303;51.960;8.372;2024-01-11T01:21:01;101986.00;;;-2.70
20289;BMP180;10303;51.960;8.372;2024-01-11T01:23:27;101984.00;;;-2.70
20289;BMP180;10303;51.960;8.372;2024-01-11T01:25:52;101990.00;;;-2.80
20289;BMP180;10303;51.960;8.372;2024-01-11T01:28:18;101990.00;;;-2.80
20289;BMP180;10303;51.960;8.372;2024-01-11T01:30:44;101996.00;;;-2.80
20289;BMP180;10303;51.960;8.372;2024-01-11T01:33:10;101999.00;;;-2.80
20289;BMP180;10303;51.960;8.372;2024-01-11T01:35:36;101981.00;;;-2.80
20289;BMP180;10303;51.960;8.372;2024-01-11T01:38:02;101983.00;;;-2.80
20289;BMP180;10303;51.960;8.372;2024-01-11T01:40:30;101986.00;;;-2.80
20289;BMP180;10303;51.960;8.372;2024-01-11T01:43:00;101990.00;;;-2.80
20289;BMP180;10303;51.960;8.372;2024-01-11T01:45:26;101994.00;;;-2.90
20289;BMP180;10303;51.960;8.372;2024-01-11T01:47:53;101994.00;;;-2.90
20289;BMP180;10303;51.960;8.372;2024-01-11T01:50:21;101994.00;;;-2.90
20289;BMP180;10303;51.960;8.372;2024-01-11T01:52:48;102002.00;;;-2.90
20289;BMP180;10303;51.960;8.372;2024-01-11T01:55:15;101997.00;;;-3.00
20289;BMP180;10303;51.960;8.372;2024-01-11T01:57:42;101982.00;;;-3.00
20289;BMP180;10303;51.960;8.372;2024-01-11T02:00:10;101993.00;;;-3.00
20289;BMP180;10303;51.960;8.372;2024-01-11T02:02:39;101983.00;;;-3.00
20289;BMP180;10303;51.960;8.372;2024-01-11T02:05:06;101975.00;;;-3.00
20289;BMP180;10303;51.960;8.372;2024-01-11T02:07:34;101984.00;;;-3.10
20289;BMP180;10303;51.960;8.372;2024-01-11T02:10:02;101976.00;;;-3.10
20289;BMP180;10303;51.960;8.372;2024-01-11T02:12:29;101980.00;;;-3.20
20289;BMP180;10303;51.960;8.372;2024-01-11T02:14:55;101979.00;;;-3.20
20289;BMP180;10303;51.960;8.372;2024-01-11T02:17:21;101989.00;;;-3.20
20289;BMP180;10303;51.960;8.372;2024-01-11T02:19:47;101986.00;;;-3.20
20289;BMP180;10303;51.960;8.372;2024-01-11T02:22:28;101986.00;;;-3.30
20289;BMP180;10303;51.960;8.372;2024-01-11T02:24:55;101999.00;;;-3.30
20289;BMP180;10303;51.960;8.372;2024-01-11T02:27:21;102001.00;;;-3.30
20289;BMP180;10303;51.960;8.372;2024-01-11T02:29:47;101981.00;;;-3.30
20289;BMP180;10303;51.960;8.372;2024-01-11T02:32:14;101975.00;;;-3.40
20289;BMP180;10303;51.960;8.372;2024-01-11T02:34:40;101981.00;;;-3.40
20289;BMP180;10303;51.960;8.372;2024-01-11T02:37:07;101978.00;;;-3.40
20289;BMP180;10303;51.960;8.372;2024-01-11T02:39:33;101961.00;;;-3.50
20289;BMP180;10303;51.960;8.372;2024-01-11T02:42:00;101973.00;;;-3.50
20289;BMP180;10303;51.960;8.372;2024-01-11T02:44:26;101976.00;;;-3.50
20289;BMP180;10303;51.960;8.372;2024-01-11T02:46:52;101986.00;;;-3.50
20289;BMP180;10303;51.960;8.372;2024-01-11T02:49:18;101993.00;;;-3.50
20289;BMP180;10303;51.960;8.372;2024-01-11T02:51:44;101994.00;;;-3.50
20289;BMP180;10303;51.960;8.372;2024-01-11T02:54:10;101990.00;;;-3.60
20289;BMP180;10303;51.960;8.372;2024-01-11T02:56:36;101982.00;;;-3.60
20289;BMP180;10303;51.960;8.372;2024-01-11T02:59:02;101981.00;;;-3.60
20289;BMP180;10303;51.960;8.372;2024-01-11T03:01:28;101982.00;;;-3.60
20289;BMP180;10303;51.960;8.372;2024-01-11T03:03:55;101986.00;;;-3.60
20289;BMP180;10303;51.960;8.372;2024-01-11T03:06:22;101986.00;;;-3.60
20289;BMP180;10303;51.960;8.372;2024-01-11T03:08:49;101967.00;;;-3.60
20289;BMP180;10303;51.960;8.372;2024-01-11T03:11:15;101983.00;;;-3.60
20289;BMP180;10303;51.960;8.372;2024-01-11T03:13:42;101977.00;;;-3.60
20289;BMP180;10303;51.960;8.372;2024-01-11T03:16:08;101994.00;;;-3.60
20289;BMP180;10303;51.960;8.372;2024-01-11T03:18:34;101989.00;;;-3.60
20289;BMP180;10303;51.960;8.372;2024-01-11T03:21:00;101969.00;;;-3.60
20289;BMP180;10303;51.960;8.372;2024-01-11T03:23:26;101989.00;;;-3.60
20289;BMP180;10303;51.960;8.372;2024-01-11T03:25:52;101993.00;;;-3.60
20289;BMP180;10303;51.960;8.372;2024-01-11T03:28:18;101989.00;;;-3.60
20289;BMP180;10303;51.960;8.372;2024-01-11T03:30:44;101997.00;;;-3.60
20289;BMP180;10303;51.960;8.372;2024-01-11T03:33:09;101995.00;;;-3.60
20289;BMP180;10303;51.960;8.372;2024-01-11T03:35:35;101982.00;;;-3.60
20289;BMP180;10303;51.960;8.372;2024-01-11T03:38:04;101977.00;;;-3.60
20289;BMP180;10303;51.960;8.372;2024-01-11T03:40:31;101994.00;;;-3.70
20289;BMP180;10303;51.960;8.372;2024-01-11T03:42:57;101986.00;;;-3.70
20289;BMP180;10303;51.960;8.372;2024-01-11T03:45:23;102004.00;;;-3.70
20289;BMP180;10303;51.960;8.372;2024-01-11T03:47:49;101977.00;;;-3.70
20289;BMP180;10303;51.960;8.372;2024-01-11T03:50:14;101981.00;;;-3.70
20289;BMP180;10303;51.960;8.372;2024-01-11T03:52:42;101994.00;;;-3.70
20289;BMP180;10303;51.960;8.372;2024-01-11T03:55:08;101985.00;;;-3.70
20289;BMP180;10303;51.960;8.372;2024-01-11T03:57:34;101990.00;;;-3.70
20289;BMP180;10303;51.960;8.372;2024-01-11T04:00:00;102011.00;;;-3.70
20289;BMP180;10303;51.960;8.372;2024-01-11T04:02:26;102005.00;;;-3.70
20289;BMP180;10303;51.960;8.372;2024-01-11T04:04:52;102018.00;;;-3.70
20289;BMP180;10303;51.960;8.372;2024-01-11T04:07:19;102020.00;;;-3.80
20289;BMP180;10303;51.960;8.372;2024-01-11T04:09:45;102019.00;;;-3.80
20289;BMP180;10303;51.960;8.372;2024-01-11T04:12:11;102018.00;;;-3.80
20289;BMP180;10303;51.960;8.372;2024-01-11T04:14:40;102028.00;;;-3.80
20289;BMP180;10303;51.960;8.372;2024-01-11T04:17:06;102024.00;;;-3.80
20289;BMP180;10303;51.960;8.372;2024-01-11T04:19:32;102031.00;;;-3.80
20289;BMP180;10303;51.960;8.372;2024-01-11T04:21:58;102031.00;;;-3.80
20289;BMP180;10303;51.960;8.372;2024-01-11T04:24:24;102040.00;;;-3.80
20289;BMP180;10303;51.960;8.372;2024-01-11T04:26:50;102033.00;;;-3.80
20289;BMP180;10303;51.960;8.372;2024-01-11T04:29:16;102035.00;;;-3.80
20289;BMP180;10303;51.960;8.372;2024-01-11T04:31:42;102037.00;;;-3.80
20289;BMP180;10303;51.960;8.372;2024-01-11T04:34:08;102038.00;;;-3.80
20289;BMP180;10303;51.960;8.372;2024-01-11T04:36:37;102046.00;;;-3.80
20289;BMP180;10303;51.960;8.372;2024-01-11T04:39:04;102039.00;;;-3.80
20289;BMP180;10303;51.960;8.372;2024-01-11T04:41:32;102028.00;;;-3.80
20289;BMP180;10303;51.960;8.372;2024-01-11T04:43:58;102027.00;;;-3.80
20289;BMP180;10303;51.960;8.372;2024-01-11T04:46:24;102032.00;;;-3.80
20289;BMP180;10303;51.960;8.372;2024-01-11T04:48:50;102038.00;;;-3.80
20289;BMP180;10303;51.960;8.372;2024-01-11T04:51:18;102037.00;;;-3.80
20289;BMP180;10303;51.960;8.372;2024-01-11T04:53:45;102050.00;;;-3.80
20289;BMP180;10303;51.960;8.372;2024-01-11T04:56:15;102043.00;;;-3.80
20289;BMP180;10303;51.960;8.372;2024-01-11T04:58:43;102045.00;;;-3.80
20289;BMP180;10303;51.960;8.372;2024-01-11T05:01:16;102051.00;;;-3.80
20289;BMP180;10303;51.960;8.372;2024-01-11T05:03:44;102042.00;;;-3.80
20289;BMP180;10303;51.960;8.372;2024-01-11T05:06:22;102040.00;;;-3.80
20289;BMP180;10303;51.960;8.372;2024-01-11T05:08:50;102034.00;;;-3.80
20289;BMP180;10303;51.960;8.372;2024-01-11T05:11:22;102029.00;;;-3.80
20289;BMP180;10303;51.960;8.372;2024-01-11T05:13:50;102028.00;;;-3.80
20289;BMP180;10303;51.960;8.372;2024-01-11T05:16:27;102005.00;;;-3.80
20289;BMP180;10303;51.960;8.372;2024-01-11T05:18:55;101994.00;;;-3.70
20289;BMP180;10303;51.960;8.372;2024-01-11T05:21:23;101989.00;;;-3.80
20289;BMP180;10303;51.960;8.372;2024-01-11T05:23:50;101993.00;;;-3.80
20289;BMP180;10303;51.960;8.372;2024-01-11T05:26:19;101987.00;;;-3.80
20289;BMP180;10303;51.960;8.372;2024-01-11T05:28:45;102010.00;;;-3.80
20289;BMP180;10303;51.960;8.372;2024-01-11T05:31:13;102006.00;;;-3.80
20289;BMP180;10303;51.960;8.372;2024-01-11T05:33:41;102004.00;;;-3.80
20289;BMP180;10303;51.960;8.372;2024-01-11T05:36:08;102021.00;;;-3.80
20289;BMP180;10303;51.960;8.372;2024-01-11T05:38:34;102033.00;;;-3.80
20289;BMP180;10303;51.960;8.372;2024-01-11T05:41:01;102043.00;;;-3.70
20289;BMP180;10303;51.960;8.372;2024-01-11T05:43:27;102044.00;;;-3.70
20289;BMP180;10303;51.960;8.372;2024-01-11T05:45:54;102045.00;;;-3.70
20289;BMP180;10303;51.960;8.372;2024-01-11T05:48:20;102036.00;;;-3.70
20289;BMP180;10303;51.960;8.372;2024-01-11T05:50:46;102043.00;;;-3.70
20289;BMP180;10303;51.960;8.372;2024-01-11T05:53:13;102049.00;;;-3.70
20289;BMP180;10303;51.960;8.372;2024-01-11T05:55:41;102043.00;;;-3.70
20289;BMP180;10303;51.960;8.372;2024-01-11T05:58:07;102058.00;;;-3.70
20289;BMP180;10303;51.960;8.372;2024-01-11T06:00:33;102051.00;;;-3.70
20289;BMP180;10303;51.960;8.372;2024-01-11T06:02:59;102039.00;;;-3.70
20289;BMP180;10303;51.960;8.372;2024-01-11T06:05:26;102050.00;;;-3.70
20289;BMP180;10303;51.960;8.372;2024-01-11T06:07:51;102050.00;;;-3.70
20289;BMP180;10303;51.960;8.372;2024-01-11T06:10:17;102053.00;;;-3.70
20289;BMP180;10303;51.960;8.372;2024-01-11T06:12:43;102060.00;;;-3.70
20289;BMP180;10303;51.960;8.372;2024-01-11T06:15:09;102073.00;;;-3.70
20289;BMP180;10303;51.960;8.372;2024-01-11T06:17:36;102087.00;;;-3.70
20289;BMP180;10303;51.960;8.372;2024-01-11T06:20:02;102099.00;;;-3.70
20289;BMP180;10303;51.960;8.372;2024-01-11T06:22:29;102104.00;;;-3.70
20289;BMP180;10303;51.960;8.372;2024-01-11T06:24:55;102098.00;;;-3.60
20289;BMP180;10303;51.960;8.372;2024-01-11T06:27:21;102098.00;;;-3.60
20289;BMP180;10303;51.960;8.372;2024-01-11T06:29:46;102097.00;;;-3.60
20289;BMP180;10303;51.960;8.372;2024-01-11T06:32:12;102083.00;;;-3.60
20289;BMP180;10303;51.960;8.372;2024-01-11T06:34:38;102073.00;;;-3.60
20289;BMP180;10303;51.960;8.372;2024-01-11T06:37:07;102073.00;;;-3.60
20289;BMP180;10303;51.960;8.372;2024-01-11T06:39:33;102072.00;;;-3.60
20289;BMP180;10303;51.960;8.372;2024-01-11T06:41:59;102073.00;;;-3.60
20289;BMP180;10303;51.960;8.372;2024-01-11T06:44:24;102066.00;;;-3.60
20289;BMP180;10303;51.960;8.372;2024-01-11T06:46:50;102077.00;;;-3.60
20289;BMP180;10303;51.960;8.372;2024-01-11T06:49:16;102064.00;;;-3.60
20289;BMP180;10303;51.960;8.372;2024-01-11T06:51:42;102067.00;;;-3.60
20289;BMP180;10303;51.960;8.372;2024-01-11T06:54:08;102053.00;;;-3.70
20289;BMP180;10303;51.960;8.372;2024-01-11T06:56:34;102059.00;;;-3.70
20289;BMP180;10303;51.960;8.372;2024-01-11T06:59:00;102059.00;;;-3.70
20289;BMP180;10303;51.960;8.372;2024-01-11T07:01:25;102047.00;;;-3.70
20289;BMP180;10303;51.960;8.372;2024-01-11T07:03:51;102050.00;;;-3.70
20289;BMP180;10303;51.960;8.372;2024-01-11T07:06:17;102049.00;;;-3.80
20289;BMP180;10303;51.960;8.372;2024-01-11T07:08:43;102044.00;;;-3.80
20289;BMP180;10303;51.960;8.372;2024-01-11T07:11:09;102044.00;;;-3.80
20289;BMP180;10303;51.960;8.372;2024-01-11T07:13:36;102050.00;;;-3.80
20289;BMP180;10303;51.960;8.372;2024-01-11T07:16:02;102034.00;;;-3.80
20289;BMP180;10303;51.960;8.372;2024-01-11T07:18:28;102049.00;;;-3.80
20289;BMP180;10303;51.960;8.372;2024-01-11T07:20:57;102058.00;;;-3.80
20289;BMP180;10303;51.960;8.372;2024-01-11T07:23:24;102051.00;;;-3.80
20289;BMP180;10303;51.960;8.372;2024-01-11T07:25:50;102058.00;;;-3.80
20289;BMP180;10303;51.960;8.372;2024-01-11T07:28:16;102052.00;;;-3.80
20289;BMP180;10303;51.960;8.372;2024-01-11T07:30:43;102060.00;;;-3.80
20289;BMP180;10303;51.960;8.372;2024-01-11T07:33:10;102060.00;;;-3.90
20289;BMP180;10303;51.960;8.372;2024-01-11T07:35:36;102070.00;;;-3.80
20289;BMP180;10303;51.960;8.372;2024-01-11T07:38:02;102080.00;;;-3.90
20289;BMP180;10303;51.960;8.372;2024-01-11T07:40:28;102086.00;;;-3.90
20289;BMP180;10303;51.960;8.372;2024-01-11T07:42:54;102074.00;;;-3.90
20289;BMP180;10303;51.960;8.372;2024-01-11T07:45:21;102077.00;;;-3.90
20289;BMP180;10303;51.960;8.372;2024-01-11T07:47:47;102069.00;;;-3.90
20289;BMP180;10303;51.960;8.372;2024-01-11T07:50:13;102076.00;;;-3.80
20289;BMP180;10303;51.960;8.372;2024-01-11T07:52:40;102080.00;;;-3.80
20289;BMP180;10303;51.960;8.372;2024-01-11T07:55:10;102075.00;;;-3.80
20289;BMP180;10303;51.960;8.372;2024-01-11T07:57:38;102084.00;;;-3.80
20289;BMP180;10303;51.960;8.372;2024-01-11T08:00:08;102082.00;;;-3.80
20289;BMP180;10303;51.960;8.372;2024-01-11T08:02:40;102106.00;;;-3.80
20289;BMP180;10303;51.960;8.372;2024-01-11T08:05:06;102092.00;;;-3.80
20289;BMP180;10303;51.960;8.372;2024-01-11T08:07:32;102093.00;;;-3.80
20289;BMP180;10303;51.960;8.372;2024-01-11T08:09:58;102095.00;;;-3.70
20289;BMP180;10303;51.960;8.372;2024-01-11T08:12:24;102093.00;;;-3.70
20289;BMP180;10303;51.960;8.372;2024-01-11T08:14:50;102108.00;;;-3.70
20289;BMP180;10303;51.960;8.372;2024-01-11T08:17:16;102114.00;;;-3.70
20289;BMP180;10303;51.960;8.372;2024-01-11T08:19:42;102094.00;;;-3.70
20289;BMP180;10303;51.960;8.372;2024-01-11T08:22:09;102082.00;;;-3.70
20289;BMP180;10303;51.960;8.372;2024-01-11T08:24:36;102100.00;;;-3.60
20289;BMP180;10303;51.960;8.372;2024-01-11T08:27:02;102106.00;;;-3.60
20289;BMP180;10303;51.960;8.372;2024-01-11T08:29:28;102102.00;;;-3.50
20289;BMP180;10303;51.960;8.372;2024-01-11T08:31:55;102093.00;;;-3.50
20289;BMP180;10303;51.960;8.372;2024-01-11T08:34:22;102105.00;;;-3.50
20289;BMP180;10303;51.960;8.372;2024-01-11T08:36:49;102111.00;;;-3.40
20289;BMP180;10303;51.960;8.372;2024-01-11T08:39:15;102121.00;;;-3.40
20289;BMP180;10303;51.960;8.372;2024-01-11T08:41:40;102132.00;;;-3.30
20289;BMP180;10303;51.960;8.372;2024-01-11T08:44:07;102142.00;;;-3.30
20289;BMP180;10303;51.960;8.372;2024-01-11T08:46:33;102146.00;;;-3.30
20289;BMP180;10303;51.960;8.372;2024-01-11T08:49:01;102151.00;;;-3.20
20289;BMP180;10303;51.960;8.372;2024-01-11T08:51:30;102150.00;;;-3.10
20289;BMP180;10303;51.960;8.372;2024-01-11T08:53:56;102145.00;;;-3.00
20289;BMP180;10303;51.960;8.372;2024-01-11T08:56:22;102143.00;;;-3.00
20289;BMP180;10303;51.960;8.372;2024-01-11T08:58:48;102153.00;;;-2.90
20289;BMP180;10303;51.960;8.372;2024-01-11T09:01:17;102166.00;;;-2.80
20289;BMP180;10303;51.960;8.372;2024-01-11T09:03:47;102166.00;;;-2.70
20289;BMP180;10303;51.960;8.372;2024-01-11T09:06:13;102174.00;;;-2.60
20289;BMP180;10303;51.960;8.372;2024-01-11T09:08:39;102173.00;;;-2.40
20289;BMP180;10303;51.960;8.372;2024-01-11T09:11:06;102170.00;;;-1.90
20289;BMP180;10303;51.960;8.372;2024-01-11T09:13:32;102180.00;;;-1.30
20289;BMP180;10303;51.960;8.372;2024-01-11T09:15:58;102164.00;;;-0.60
20289;BMP180;10303;51.960;8.372;2024-01-11T09:18:24;102168.00;;;0.10
20289;BMP180;10303;51.960;8.372;2024-01-11T09:20:50;102169.00;;;0.70
20289;BMP180;10303;51.960;8.372;2024-01-11T09:23:16;102158.00;;;1.40
20289;BMP180;10303;51.960;8.372;2024-01-11T09:25:43;102170.00;;;2.00
20289;BMP180;10303;51.960;8.372;2024-01-11T09:28:09;102164.00;;;2.60
20289;BMP180;10303;51.960;8.372;2024-01-11T09:30:35;102146.00;;;3.10
20289;BMP180;10303;51.960;8.372;2024-01-11T09:33:01;102140.00;;;3.60
20289;BMP180;10303;51.960;8.372;2024-01-11T09:35:27;102144.00;;;4.00
20289;BMP180;10303;51.960;8.372;2024-01-11T09:37:53;102140.00;;;4.20
20289;BMP180;10303;51.960;8.372;2024-01-11T09:40:19;102144.00;;;4.30
20289;BMP180;10303;51.960;8.372;2024-01-11T09:42:45;102159.00;;;4.50
20289;BMP180;10303;51.960;8.372;2024-01-11T09:45:16;102160.00;;;4.80
20289;BMP180;10303;51.960;8.372;2024-01-11T09:47:44;102171.00;;;5.00
20289;BMP180;10303;51.960;8.372;2024-01-11T09:50:16;102172.00;;;5.30
20289;BMP180;10303;51.960;8.372;2024-01-11T09:52:48;102150.00;;;5.40
20289;BMP180;10303;51.960;8.372;2024-01-11T09:55:15;102161.00;;;5.50
20289;BMP180;10303;51.960;8.372;2024-01-11T09:57:46;102160.00;;;5.60
20289;BMP180;10303;51.960;8.372;2024-01-11T10:00:17;102164.00;;;5.80
20289;BMP180;10303;51.960;8.372;2024-01-11T10:02:46;102174.00;;;5.90
20289;BMP180;10303;51.960;8.372;2024-01-11T10:05:13;102182.00;;;6.10
20289;BMP180;10303;51.960;8.372;2024-01-11T10:07:41;102190.00;;;6.20
20289;BMP180;10303;51.960;8.372;2024-01-11T10:10:09;102178.00;;;6.20
20289;BMP180;10303;51.960;8.372;2024-01-11T10:12:36;102180.00;;;6.10
20289;BMP180;10303;51.960;8.372;2024-01-11T10:15:08;102195.00;;;6.10
20289;BMP180;10303;51.960;8.372;2024-01-11T10:17:44;102193.00;;;6.00
20289;BMP180;10303;51.960;8.372;2024-01-11T10:20:15;102182.00;;;6.00
20289;BMP180;10303;51.960;8.372;2024-01-11T10:22:43;102178.00;;;6.10
20289;BMP180;10303;51.960;8.372;2024-01-11T10:25:17;102179.00;;;6.10
20289;BMP180;10303;51.960;8.372;2024-01-11T10:27:45;102175.00;;;6.10
20289;BMP180;10303;51.960;8.372;2024-01-11T10:30:13;102176.00;;;6.00
20289;BMP180;10303;51.960;8.372;2024-01-11T10:32:43;102171.00;;;6.10
20289;BMP180;10303;51.960;8.372;2024-01-11T10:35:09;102176.00;;;6.20
20289;BMP180;10303;51.960;8.372;2024-01-11T10:37:37;102171.00;;;6.30
20289;BMP180;10303;51.960;8.372;2024-01-11T10:40:07;102175.00;;;6.40
20289;BMP180;10303;51.960;8.372;2024-01-11T10:42:43;102184.00;;;6.60
20289;BMP180;10303;51.960;8.372;2024-01-11T10:45:18;102168.00;;;6.70
20289;BMP180;10303;51.960;8.372;2024-01-11T10:47:56;102162.00;;;6.80
20289;BMP180;10303;51.960;8.372;2024-01-11T10:50:34;102165.00;;;7.00
20289;BMP180;10303;51.960;8.372;2024-01-11T10:53:41;102159.00;;;7.10
20289;BMP180;10303;51.960;8.372;2024-01-11T10:56:10;102166.00;;;7.20
20289;BMP180;10303;51.960;8.372;2024-01-11T10:58:44;102169.00;;;7.30
20289;BMP180;10303;51.960;8.372;2024-01-11T11:01:13;102169.00;;;7.30
20289;BMP180;10303;51.960;8.372;2024-01-11T11:03:40;102172.00;;;7.40
20289;BMP180;10303;51.960;8.372;2024-01-11T11:06:11;102174.00;;;7.40
20289;BMP180;10303;51.960;8.372;2024-01-11T11:08:39;102168.00;;;7.40
20289;BMP180;10303;51.960;8.372;2024-01-11T11:11:05;102167.00;;;7.20
20289;BMP180;10303;51.960;8.372;2024-01-11T11:13:33;102161.00;;;7.00
20289;BMP180;10303;51.960;8.372;2024-01-11T11:16:03;102160.00;;;6.80
20289;BMP180;10303;51.960;8.372;2024-01-11T11:18:33;102154.00;;;6.60
20289;BMP180;10303;51.960;8.372;2024-01-11T11:21:00;102147.00;;;6.50
20289;BMP180;10303;51.960;8.372;2024-01-11T11:23:26;102143.00;;;6.30
20289;BMP180;10303;51.960;8.372;2024-01-11T11:25:55;102150.00;;;6.20
20289;BMP180;10303;51.960;8.372;2024-01-11T11:28:23;102145.00;;;6.00
20289;BMP180;10303;51.960;8.372;2024-01-11T11:30:52;102155.00;;;5.90
20289;BMP180;10303;51.960;8.372;2024-01-11T11:33:24;102157.00;;;5.80
20289;BMP180;10303;51.960;8.372;2024-01-11T11:36:03;102157.00;;;5.70
20289;BMP180;10303;51.960;8.372;2024-01-11T11:38:31;102160.00;;;5.70
20289;BMP180;10303;51.960;8.372;2024-01-11T11:40:59;102153.00;;;5.60
20289;BMP180;10303;51.960;8.372;2024-01-11T11:43:31;102152.00;;;5.50
20289;BMP180;10303;51.960;8.372;2024-01-11T11:45:57;102152.00;;;5.50
20289;BMP180;10303;51.960;8.372;2024-01-11T11:51:12;102148.00;;;5.30
20289;BMP180;10303;51.960;8.372;2024-01-11T11:53:40;102155.00;;;5.30
20289;BMP180;10303;51.960;8.372;2024-01-11T11:56:08;102153.00;;;5.30
20289;BMP180;10303;51.960;8.372;2024-01-11T11:58:35;102141.00;;;5.20
20289;BMP180;10303;51.960;8.372;2024-01-11T12:01:03;102142.00;;;5.20
20289;BMP180;10303;51.960;8.372;2024-01-11T12:03:40;102150.00;;;5.10
20289;BMP180;10303;51.960;8.372;2024-01-11T12:06:09;102149.00;;;5.10
20289;BMP180;10303;51.960;8.372;2024-01-11T12:08:37;102133.00;;;5.10
20289;BMP180;10303;51.960;8.372;2024-01-11T12:11:04;102132.00;;;5.00
20289;BMP180;10303;51.960;8.372;2024-01-11T12:13:31;102122.00;;;5.10
20289;BMP180;10303;51.960;8.372;2024-01-11T12:15:57;102136.00;;;5.00
20289;BMP180;10303;51.960;8.372;2024-01-11T12:18:23;102139.00;;;5.00
20289;BMP180;10303;51.960;8.372;2024-01-11T12:20:51;102139.00;;;5.00
20289;BMP180;10303;51.960;8.372;2024-01-11T12:23:20;102138.00;;;5.00
20289;BMP180;10303;51.960;8.372;2024-01-11T12:25:47;102142.00;;;4.90
20289;BMP180;10303;51.960;8.372;2024-01-11T12:28:14;102127.00;;;4.90
20289;BMP180;10303;51.960;8.372;2024-01-11T12:30:40;102136.00;;;4.90
20289;BMP180;10303;51.960;8.372;2024-01-11T12:33:06;102143.00;;;4.80
20289;BMP180;10303;51.960;8.372;2024-01-11T12:35:32;102137.00;;;4.80
20289;BMP180;10303;51.960;8.372;2024-01-11T12:38:01;102126.00;;;4.80
20289;BMP180;10303;51.960;8.372;2024-01-11T12:40:35;102133.00;;;4.80
20289;BMP180;10303;51.960;8.372;2024-01-11T12:43:07;102117.00;;;4.70
20289;BMP180;10303;51.960;8.372;2024-01-11T12:45:36;102110.00;;;4.60
20289;BMP180;10303;51.960;8.372;2024-01-11T12:48:03;102108.00;;;4.60
20289;BMP180;10303;51.960;8.372;2024-01-11T12:50:33;102107.00;;;4.60
20289;BMP180;10303;51.960;8.372;2024-01-11T12:53:15;102110.00;;;4.50
20289;BMP180;10303;51.960;8.372;2024-01-11T12:55:48;102106.00;;;4.50
20289;BMP180;10303;51.960;8.372;2024-01-11T12:58:20;102102.00;;;4.50
20289;BMP180;10303;51.960;8.372;2024-01-11T13:00:47;102098.00;;;4.40
20289;BMP180;10303;51.960;8.372;2024-01-11T13:03:15;102088.00;;;4.30
20289;BMP180;10303;51.960;8.372;2024-01-11T13:05:41;102075.00;;;4.30
20289;BMP180;10303;51.960;8.372;2024-01-11T13:08:10;102087.00;;;4.20
20289;BMP180;10303;51.960;8.372;2024-01-11T13:10:37;102087.00;;;4.20
20289;BMP180;10303;51.960;8.372;2024-01-11T13:13:04;102076.00;;;4.20
20289;BMP180;10303;51.960;8.372;2024-01-11T13:15:31;102084.00;;;4.20
20289;BMP180;10303;51.960;8.372;2024-01-11T13:18:00;102070.00;;;4.20
20289;BMP180;10303;51.960;8.372;2024-01-11T13:20:28;102074.00;;;4.10
20289;BMP180;10303;51.960;8.372;2024-01-11T13:23:18;102084.00;;;4.10
20289;BMP180;10303;51.960;8.372;2024-01-11T13:25:47;102079.00;;;4.10
20289;BMP180;10303;51.960;8.372;2024-01-11T13:28:13;102075.00;;;4.10
20289;BMP180;10303;51.960;8.372;2024-01-11T13:30:43;102085.00;;;4.00
20289;BMP180;10303;51.960;8.372;2024-01-11T13:33:11;102069.00;;;4.00
20289;BMP180;10303;51.960;8.372;2024-01-11T13:35:40;102067.00;;;4.10
20289;BMP180;10303;51.960;8.372;2024-01-11T13:38:06;102070.00;;;4.00
20289;BMP180;10303;51.960;8.372;2024-01-11T13:40:33;102072.00;;;4.00
20289;BMP180;10303;51.960;8.372;2024-01-11T13:43:00;102071.00;;;4.00
20289;BMP180;10303;51.960;8.372;2024-01-11T13:45:27;102073.00;;;4.10
20289;BMP180;10303;51.960;8.372;2024-01-11T13:47:54;102079.00;;;4.10
20289;BMP180;10303;51.960;8.372;2024-01-11T13:50:21;102080.00;;;4.10
20289;BMP180;10303;51.960;8.372;2024-01-11T13:52:46;102076.00;;;4.10
20289;BMP180;10303;51.960;8.372;2024-01-11T13:55:13;102084.00;;;4.10
20289;BMP180;10303;51.960;8.372;2024-01-11T13:57:39;102082.00;;;4.10
20289;BMP180;10303;51.960;8.372;2024-01-11T14:00:06;102083.00;;;4.10
20289;BMP180;10303;51.960;8.372;2024-01-11T14:02:33;102084.00;;;4.10
20289;BMP180;10303;51.960;8.372;2024-01-11T14:04:59;102086.00;;;4.10